createdAt,value
2018-06-08T00:09:23.695Z,16.62
2018-06-08T00:20:22.221Z,16.60
2018-06-08T00:31:25.888Z,16.44
2018-06-08T00:42:29.832Z,16.41
2018-06-08T00:53:27.015Z,16.35
2018-06-08T01:04:31.008Z,16.33
2018-06-08T01:15:30.808Z,16.22
2018-06-08T01:26:34.339Z,16.00
2018-06-08T01:37:34.293Z,15.92
2018-06-08T01:48:37.151Z,15.75
2018-06-08T01:59:36.000Z,15.85
2018-06-08T02:10:39.443Z,15.67
2018-06-08T02:21:41.840Z,15.66
2018-06-08T02:32:42.145Z,15.67
2018-06-08T02:43:41.151Z,15.53
2018-06-08T02:54:44.360Z,15.60
2018-06-08T03:05:44.440Z,15.42
2018-06-08T03:16:41.788Z,15.42
2018-06-08T03:27:37.998Z,15.42
2018-06-08T03:38:41.856Z,15.52
2018-06-08T03:49:42.853Z,15.51
2018-06-08T04:00:45.288Z,15.55
2018-06-08T04:11:46.710Z,15.70
2018-06-08T04:22:46.566Z,16.07
2018-06-08T04:33:46.249Z,16.37
2018-06-08T04:44:47.965Z,16.55
2018-06-08T04:55:48.876Z,16.74
2018-06-08T05:06:51.432Z,17.11
2018-06-08T05:17:55.241Z,17.48
2018-06-08T05:28:56.303Z,17.81
2018-06-08T05:39:51.516Z,18.22
2018-06-08T05:50:48.018Z,18.79
2018-06-08T06:01:47.776Z,19.39
2018-06-08T06:12:50.335Z,19.46
2018-06-08T06:23:52.566Z,19.94
2018-06-08T06:34:55.923Z,20.30
2018-06-08T06:45:58.672Z,20.54
2018-06-08T06:57:00.845Z,20.86
2018-06-08T07:08:03.518Z,21.27
2018-06-08T07:19:01.386Z,21.16
2018-06-08T07:29:57.332Z,21.45
2018-06-08T07:40:59.560Z,21.98
2018-06-08T07:51:59.741Z,22.28
2018-06-08T08:03:01.789Z,22.77
2018-06-08T08:14:03.820Z,22.77
2018-06-08T08:25:03.168Z,23.02
2018-06-08T08:36:02.126Z,23.35
2018-06-08T08:47:01.521Z,23.82
2018-06-08T08:58:00.333Z,24.19
2018-06-08T09:08:58.389Z,24.12
2018-06-08T09:19:33.752Z,24.34
2018-06-08T09:30:33.681Z,24.42
2018-06-08T09:41:36.417Z,24.88
2018-06-08T09:52:36.860Z,25.27
2018-06-08T10:03:34.747Z,25.52
2018-06-08T10:14:37.547Z,25.78
2018-06-08T10:25:38.095Z,26.45
2018-06-08T10:36:42.206Z,26.77
2018-06-08T10:47:40.344Z,27.04
2018-06-08T10:58:44.362Z,27.04
2018-06-08T11:09:45.584Z,27.74
2018-06-08T11:20:47.129Z,28.72
2018-06-08T11:31:47.350Z,28.90
2018-06-08T11:42:46.276Z,29.78
2018-06-08T11:53:25.907Z,30.71
2018-06-08T12:04:11.197Z,31.98
2018-06-08T12:14:53.998Z,31.18
2018-06-08T12:25:43.281Z,32.82
2018-06-08T12:36:28.450Z,32.42
2018-06-08T12:47:15.389Z,33.09
2018-06-08T12:58:04.471Z,31.91
2018-06-08T13:08:47.045Z,32.70
2018-06-08T13:19:34.018Z,32.64
2018-06-08T13:30:16.082Z,32.11
2018-06-08T13:40:56.840Z,31.96
2018-06-08T13:51:40.330Z,32.18
2018-06-08T14:02:31.042Z,33.20
2018-06-08T14:13:32.383Z,31.23
2018-06-08T14:24:16.116Z,32.09
2018-06-08T14:35:03.235Z,31.33
2018-06-08T14:46:01.525Z,29.14
2018-06-08T14:57:01.161Z,27.61
2018-06-08T15:07:54.653Z,27.02
2018-06-08T15:18:50.577Z,26.58
2018-06-08T15:29:50.792Z,26.09
2018-06-08T15:40:53.683Z,25.72
2018-06-08T15:51:53.104Z,25.35
2018-06-08T16:02:46.462Z,25.01
2018-06-08T16:13:45.731Z,24.34
2018-06-08T16:24:47.684Z,23.74
2018-06-08T16:35:43.364Z,24.05
2018-06-08T16:46:44.975Z,23.68
2018-06-08T16:57:47.023Z,23.17
2018-06-08T17:08:49.865Z,22.68
2018-06-08T17:19:53.446Z,22.38
2018-06-08T17:30:54.499Z,22.08
2018-06-08T17:41:52.719Z,21.92
2018-06-08T17:52:48.902Z,21.63
2018-06-08T18:03:45.429Z,21.27
2018-06-08T18:14:46.454Z,21.08
2018-06-08T18:25:46.994Z,20.90
2018-06-08T18:36:55.209Z,20.47
2018-06-08T18:47:48.925Z,20.13
2018-06-08T18:58:29.733Z,20.03
2018-06-08T19:09:25.722Z,19.98
2018-06-08T19:20:20.783Z,19.95
2018-06-08T19:31:19.812Z,19.73
2018-06-08T19:42:19.720Z,19.25
2018-06-08T19:53:18.414Z,19.17
2018-06-08T20:04:18.828Z,18.92
2018-06-08T20:15:16.111Z,18.68
2018-06-08T20:26:11.953Z,18.58
2018-06-08T20:37:14.325Z,18.37
2018-06-08T20:48:12.269Z,18.25
2018-06-08T20:59:00.958Z,18.22
2018-06-08T21:09:56.732Z,18.22
2018-06-08T21:20:56.280Z,18.29
2018-06-08T21:31:57.060Z,18.24
2018-06-08T21:42:59.280Z,18.32
2018-06-08T21:53:57.062Z,19.05
2018-06-08T22:04:53.054Z,18.64
2018-06-08T22:15:53.226Z,18.42
2018-06-08T22:26:50.937Z,18.09
2018-06-08T22:37:52.689Z,18.06
2018-06-08T22:48:55.983Z,18.16
2018-06-08T23:00:00.031Z,18.03
2018-06-08T23:11:01.522Z,17.92
2018-06-08T23:22:00.974Z,17.87
2018-06-08T23:33:00.434Z,17.79
2018-06-08T23:44:00.124Z,17.79
2018-06-08T23:55:02.462Z,17.91
